sensor_id;sensor_type;location;lat;lon;timestamp;P1;durP1;ratioP1;P2;durP2;ratioP2
65971;SDS011;52726;48.852;9.152;2023-12-07T00:01:33;7.05;;;3.38;;
65971;SDS011;52726;48.852;9.152;2023-12-07T00:04:02;6.88;;;3.53;;
65971;SDS011;52726;48.852;9.152;2023-12-07T00:06:27;5.13;;;2.22;;
65971;SDS011;52726;48.852;9.152;2023-12-07T00:08:53;2.58;;;1.92;;
65971;SDS011;52726;48.852;9.152;2023-12-07T00:11:18;4.85;;;2.97;;
65971;SDS011;52726;48.852;9.152;2023-12-07T00:13:43;3.63;;;2.40;;
65971;SDS011;52726;48.852;9.152;2023-12-07T00:16:09;4.03;;;2.40;;
65971;SDS011;52726;48.852;9.152;2023-12-07T00:18:35;2.80;;;2.47;;
65971;SDS011;52726;48.852;9.152;2023-12-07T00:21:00;3.10;;;2.38;;
65971;SDS011;52726;48.852;9.152;2023-12-07T00:23:26;4.50;;;3.00;;
65971;SDS011;52726;48.852;9.152;2023-12-07T00:25:51;3.65;;;2.88;;
65971;SDS011;52726;48.852;9.152;2023-12-07T00:28:17;4.50;;;2.58;;
65971;SDS011;52726;48.852;9.152;2023-12-07T00:30:42;5.70;;;2.30;;
65971;SDS011;52726;48.852;9.152;2023-12-07T00:33:08;4.15;;;2.40;;
65971;SDS011;52726;48.852;9.152;2023-12-07T00:35:34;6.43;;;2.95;;
65971;SDS011;52726;48.852;9.152;2023-12-07T00:37:59;3.75;;;2.60;;
65971;SDS011;52726;48.852;9.152;2023-12-07T00:40:25;2.95;;;1.98;;
65971;SDS011;52726;48.852;9.152;2023-12-07T00:42:50;4.40;;;2.70;;
65971;SDS011;52726;48.852;9.152;2023-12-07T00:45:16;3.72;;;2.40;;
65971;SDS011;52726;48.852;9.152;2023-12-07T00:47:41;3.35;;;2.90;;
65971;SDS011;52726;48.852;9.152;2023-12-07T00:50:07;3.13;;;2.35;;
65971;SDS011;52726;48.852;9.152;2023-12-07T00:52:33;3.75;;;2.85;;
65971;SDS011;52726;48.852;9.152;2023-12-07T00:54:58;4.25;;;2.03;;
65971;SDS011;52726;48.852;9.152;2023-12-07T00:57:23;4.90;;;2.40;;
65971;SDS011;52726;48.852;9.152;2023-12-07T00:59:49;2.50;;;2.28;;
65971;SDS011;52726;48.852;9.152;2023-12-07T01:02:14;7.88;;;3.72;;
65971;SDS011;52726;48.852;9.152;2023-12-07T01:04:39;4.40;;;2.45;;
65971;SDS011;52726;48.852;9.152;2023-12-07T01:07:05;6.25;;;2.47;;
65971;SDS011;52726;48.852;9.152;2023-12-07T01:09:30;2.55;;;2.10;;
65971;SDS011;52726;48.852;9.152;2023-12-07T01:11:56;3.05;;;2.55;;
65971;SDS011;52726;48.852;9.152;2023-12-07T01:14:23;4.55;;;2.95;;
65971;SDS011;52726;48.852;9.152;2023-12-07T01:16:49;2.20;;;2.08;;
65971;SDS011;52726;48.852;9.152;2023-12-07T01:19:14;4.30;;;3.13;;
65971;SDS011;52726;48.852;9.152;2023-12-07T01:21:40;4.80;;;2.90;;
65971;SDS011;52726;48.852;9.152;2023-12-07T01:24:06;4.32;;;2.65;;
65971;SDS011;52726;48.852;9.152;2023-12-07T01:26:32;5.25;;;3.38;;
65971;SDS011;52726;48.852;9.152;2023-12-07T01:28:57;4.18;;;2.97;;
65971;SDS011;52726;48.852;9.152;2023-12-07T01:31:22;4.20;;;2.70;;
65971;SDS011;52726;48.852;9.152;2023-12-07T01:33:48;3.45;;;2.45;;
65971;SDS011;52726;48.852;9.152;2023-12-07T01:36:13;4.10;;;2.92;;
65971;SDS011;52726;48.852;9.152;2023-12-07T01:38:38;3.70;;;2.90;;
65971;SDS011;52726;48.852;9.152;2023-12-07T01:41:04;3.08;;;2.40;;
65971;SDS011;52726;48.852;9.152;2023-12-07T01:43:30;3.92;;;2.72;;
65971;SDS011;52726;48.852;9.152;2023-12-07T01:45:56;3.60;;;2.35;;
65971;SDS011;52726;48.852;9.152;2023-12-07T01:48:22;6.65;;;3.03;;
65971;SDS011;52726;48.852;9.152;2023-12-07T01:50:51;2.53;;;2.33;;
65971;SDS011;52726;48.852;9.152;2023-12-07T01:53:17;3.53;;;2.05;;
65971;SDS011;52726;48.852;9.152;2023-12-07T01:59:04;3.90;;;2.63;;
65971;SDS011;52726;48.852;9.152;2023-12-07T02:01:30;3.72;;;2.60;;
65971;SDS011;52726;48.852;9.152;2023-12-07T02:13:43;3.65;;;2.25;;
65971;SDS011;52726;48.852;9.152;2023-12-07T02:16:11;3.78;;;2.65;;
65971;SDS011;52726;48.852;9.152;2023-12-07T02:19:24;3.25;;;2.50;;
65971;SDS011;52726;48.852;9.152;2023-12-07T02:21:47;3.08;;;2.15;;
65971;SDS011;52726;48.852;9.152;2023-12-07T02:24:21;3.05;;;1.80;;
65971;SDS011;52726;48.852;9.152;2023-12-07T02:26:47;2.90;;;2.08;;
65971;SDS011;52726;48.852;9.152;2023-12-07T02:29:13;2.72;;;2.53;;
65971;SDS011;52726;48.852;9.152;2023-12-07T02:31:38;4.15;;;2.35;;
65971;SDS011;52726;48.852;9.152;2023-12-07T02:34:03;3.65;;;2.40;;
65971;SDS011;52726;48.852;9.152;2023-12-07T02:36:29;3.92;;;3.00;;
65971;SDS011;52726;48.852;9.152;2023-12-07T02:38:58;6.25;;;2.78;;
65971;SDS011;52726;48.852;9.152;2023-12-07T02:41:26;4.25;;;2.67;;
65971;SDS011;52726;48.852;9.152;2023-12-07T02:43:53;4.00;;;2.83;;
65971;SDS011;52726;48.852;9.152;2023-12-07T02:46:19;3.67;;;2.60;;
65971;SDS011;52726;48.852;9.152;2023-12-07T02:48:44;3.50;;;2.75;;
65971;SDS011;52726;48.852;9.152;2023-12-07T02:51:10;4.00;;;2.63;;
65971;SDS011;52726;48.852;9.152;2023-12-07T02:53:35;2.95;;;1.92;;
65971;SDS011;52726;48.852;9.152;2023-12-07T02:56:00;4.82;;;2.80;;
65971;SDS011;52726;48.852;9.152;2023-12-07T02:58:26;3.88;;;2.63;;
65971;SDS011;52726;48.852;9.152;2023-12-07T03:00:51;4.65;;;2.45;;
65971;SDS011;52726;48.852;9.152;2023-12-07T03:03:16;2.92;;;2.40;;
65971;SDS011;52726;48.852;9.152;2023-12-07T03:05:42;3.65;;;2.28;;
65971;SDS011;52726;48.852;9.152;2023-12-07T03:08:07;3.65;;;2.25;;
65971;SDS011;52726;48.852;9.152;2023-12-07T03:10:32;2.97;;;2.67;;
65971;SDS011;52726;48.852;9.152;2023-12-07T03:12:58;3.10;;;2.22;;
65971;SDS011;52726;48.852;9.152;2023-12-07T03:15:23;2.72;;;2.10;;
65971;SDS011;52726;48.852;9.152;2023-12-07T03:17:49;4.22;;;2.55;;
65971;SDS011;52726;48.852;9.152;2023-12-07T03:20:14;5.07;;;3.05;;
65971;SDS011;52726;48.852;9.152;2023-12-07T03:22:40;3.67;;;2.22;;
65971;SDS011;52726;48.852;9.152;2023-12-07T03:25:05;4.80;;;2.15;;
65971;SDS011;52726;48.852;9.152;2023-12-07T03:27:31;3.03;;;2.35;;
65971;SDS011;52726;48.852;9.152;2023-12-07T03:29:57;3.80;;;2.28;;
65971;SDS011;52726;48.852;9.152;2023-12-07T03:32:22;4.75;;;2.38;;
65971;SDS011;52726;48.852;9.152;2023-12-07T03:34:47;2.30;;;2.10;;
65971;SDS011;52726;48.852;9.152;2023-12-07T03:37:12;2.97;;;2.05;;
65971;SDS011;52726;48.852;9.152;2023-12-07T03:39:38;2.78;;;2.22;;
65971;SDS011;52726;48.852;9.152;2023-12-07T03:42:03;2.72;;;2.15;;
65971;SDS011;52726;48.852;9.152;2023-12-07T03:44:29;2.83;;;2.38;;
65971;SDS011;52726;48.852;9.152;2023-12-07T03:46:54;1.63;;;1.52;;
65971;SDS011;52726;48.852;9.152;2023-12-07T03:49:20;4.75;;;2.78;;
65971;SDS011;52726;48.852;9.152;2023-12-07T03:51:45;2.55;;;2.13;;
65971;SDS011;52726;48.852;9.152;2023-12-07T03:54:11;2.67;;;2.03;;
65971;SDS011;52726;48.852;9.152;2023-12-07T03:56:36;2.97;;;2.08;;
65971;SDS011;52726;48.852;9.152;2023-12-07T03:59:01;2.42;;;1.67;;
65971;SDS011;52726;48.852;9.152;2023-12-07T04:01:27;1.90;;;1.80;;
65971;SDS011;52726;48.852;9.152;2023-12-07T04:03:54;4.18;;;2.08;;
65971;SDS011;52726;48.852;9.152;2023-12-07T04:06:21;1.58;;;1.48;;
65971;SDS011;52726;48.852;9.152;2023-12-07T04:08:47;5.70;;;2.63;;
65971;SDS011;52726;48.852;9.152;2023-12-07T04:11:13;3.03;;;2.15;;
65971;SDS011;52726;48.852;9.152;2023-12-07T04:13:38;3.63;;;1.85;;
65971;SDS011;52726;48.852;9.152;2023-12-07T04:16:04;2.17;;;1.73;;
65971;SDS011;52726;48.852;9.152;2023-12-07T04:18:30;4.05;;;3.22;;
65971;SDS011;52726;48.852;9.152;2023-12-07T04:20:56;3.70;;;2.00;;
65971;SDS011;52726;48.852;9.152;2023-12-07T04:23:21;2.80;;;2.45;;
65971;SDS011;52726;48.852;9.152;2023-12-07T04:25:47;4.07;;;2.67;;
65971;SDS011;52726;48.852;9.152;2023-12-07T04:28:12;4.82;;;2.75;;
65971;SDS011;52726;48.852;9.152;2023-12-07T04:30:37;3.88;;;1.83;;
65971;SDS011;52726;48.852;9.152;2023-12-07T04:33:03;4.47;;;1.70;;
65971;SDS011;52726;48.852;9.152;2023-12-07T04:35:28;1.90;;;1.50;;
65971;SDS011;52726;48.852;9.152;2023-12-07T04:37:54;1.90;;;1.77;;
65971;SDS011;52726;48.852;9.152;2023-12-07T04:40:19;2.78;;;2.38;;
65971;SDS011;52726;48.852;9.152;2023-12-07T04:42:45;4.05;;;2.45;;
65971;SDS011;52726;48.852;9.152;2023-12-07T04:45:10;3.45;;;1.80;;
65971;SDS011;52726;48.852;9.152;2023-12-07T04:47:35;1.55;;;1.45;;
65971;SDS011;52726;48.852;9.152;2023-12-07T04:50:01;3.70;;;2.42;;
65971;SDS011;52726;48.852;9.152;2023-12-07T04:52:26;2.60;;;1.85;;
65971;SDS011;52726;48.852;9.152;2023-12-07T04:54:51;2.53;;;2.33;;
65971;SDS011;52726;48.852;9.152;2023-12-07T04:57:17;3.55;;;2.13;;
65971;SDS011;52726;48.852;9.152;2023-12-07T04:59:42;3.20;;;2.03;;
65971;SDS011;52726;48.852;9.152;2023-12-07T05:02:12;2.20;;;1.80;;
65971;SDS011;52726;48.852;9.152;2023-12-07T05:04:39;1.92;;;1.83;;
65971;SDS011;52726;48.852;9.152;2023-12-07T05:07:04;2.83;;;2.45;;
65971;SDS011;52726;48.852;9.152;2023-12-07T05:09:29;2.75;;;2.30;;
65971;SDS011;52726;48.852;9.152;2023-12-07T05:11:56;3.80;;;2.97;;
65971;SDS011;52726;48.852;9.152;2023-12-07T05:14:21;3.17;;;2.10;;
65971;SDS011;52726;48.852;9.152;2023-12-07T05:16:47;2.45;;;1.33;;
65971;SDS011;52726;48.852;9.152;2023-12-07T05:19:13;4.13;;;1.90;;
65971;SDS011;52726;48.852;9.152;2023-12-07T05:21:38;6.20;;;2.85;;
65971;SDS011;52726;48.852;9.152;2023-12-07T05:24:04;3.67;;;2.40;;
65971;SDS011;52726;48.852;9.152;2023-12-07T05:26:29;3.35;;;2.58;;
65971;SDS011;52726;48.852;9.152;2023-12-07T05:28:57;3.22;;;1.73;;
65971;SDS011;52726;48.852;9.152;2023-12-07T05:31:24;2.92;;;2.30;;
65971;SDS011;52726;48.852;9.152;2023-12-07T05:33:51;3.47;;;2.58;;
65971;SDS011;52726;48.852;9.152;2023-12-07T05:36:16;4.22;;;3.42;;
65971;SDS011;52726;48.852;9.152;2023-12-07T05:38:41;3.15;;;2.80;;
65971;SDS011;52726;48.852;9.152;2023-12-07T05:41:25;5.15;;;2.80;;
65971;SDS011;52726;48.852;9.152;2023-12-07T05:43:59;3.75;;;2.70;;
65971;SDS011;52726;48.852;9.152;2023-12-07T05:46:25;4.88;;;2.65;;
65971;SDS011;52726;48.852;9.152;2023-12-07T05:48:51;2.97;;;2.72;;
65971;SDS011;52726;48.852;9.152;2023-12-07T05:51:17;7.30;;;2.88;;
65971;SDS011;52726;48.852;9.152;2023-12-07T05:53:43;3.25;;;2.35;;
65971;SDS011;52726;48.852;9.152;2023-12-07T05:56:09;5.68;;;2.72;;
65971;SDS011;52726;48.852;9.152;2023-12-07T05:58:35;4.53;;;2.70;;
65971;SDS011;52726;48.852;9.152;2023-12-07T06:01:01;3.10;;;2.05;;
65971;SDS011;52726;48.852;9.152;2023-12-07T06:03:30;3.08;;;1.95;;
65971;SDS011;52726;48.852;9.152;2023-12-07T06:05:55;2.05;;;1.83;;
65971;SDS011;52726;48.852;9.152;2023-12-07T06:08:21;4.55;;;2.83;;
65971;SDS011;52726;48.852;9.152;2023-12-07T06:10:47;3.30;;;2.30;;
65971;SDS011;52726;48.852;9.152;2023-12-07T06:13:13;7.13;;;3.05;;
65971;SDS011;52726;48.852;9.152;2023-12-07T06:15:38;4.82;;;2.30;;
65971;SDS011;52726;48.852;9.152;2023-12-07T06:18:04;3.53;;;2.58;;
65971;SDS011;52726;48.852;9.152;2023-12-07T06:20:29;2.92;;;2.55;;
65971;SDS011;52726;48.852;9.152;2023-12-07T06:22:55;4.55;;;2.65;;
65971;SDS011;52726;48.852;9.152;2023-12-07T06:25:20;2.67;;;2.42;;
65971;SDS011;52726;48.852;9.152;2023-12-07T06:27:46;3.90;;;2.65;;
65971;SDS011;52726;48.852;9.152;2023-12-07T06:30:11;2.00;;;1.85;;
65971;SDS011;52726;48.852;9.152;2023-12-07T06:32:37;1.60;;;1.48;;
65971;SDS011;52726;48.852;9.152;2023-12-07T06:35:03;3.60;;;1.77;;
65971;SDS011;52726;48.852;9.152;2023-12-07T06:37:32;4.40;;;1.70;;
65971;SDS011;52726;48.852;9.152;2023-12-07T06:39:57;2.33;;;1.83;;
65971;SDS011;52726;48.852;9.152;2023-12-07T06:42:25;2.97;;;2.13;;
65971;SDS011;52726;48.852;9.152;2023-12-07T06:44:50;7.68;;;2.65;;
65971;SDS011;52726;48.852;9.152;2023-12-07T06:47:16;5.53;;;3.03;;
65971;SDS011;52726;48.852;9.152;2023-12-07T06:49:41;6.88;;;2.47;;
65971;SDS011;52726;48.852;9.152;2023-12-07T06:52:07;1.85;;;1.60;;
65971;SDS011;52726;48.852;9.152;2023-12-07T06:54:33;6.88;;;2.22;;
65971;SDS011;52726;48.852;9.152;2023-12-07T06:56:59;2.10;;;1.52;;
65971;SDS011;52726;48.852;9.152;2023-12-07T06:59:24;4.28;;;2.58;;
65971;SDS011;52726;48.852;9.152;2023-12-07T07:01:49;2.72;;;2.53;;
65971;SDS011;52726;48.852;9.152;2023-12-07T07:04:15;5.55;;;2.45;;
65971;SDS011;52726;48.852;9.152;2023-12-07T07:06:41;2.15;;;1.83;;
65971;SDS011;52726;48.852;9.152;2023-12-07T07:09:06;1.77;;;1.67;;
65971;SDS011;52726;48.852;9.152;2023-12-07T07:11:31;3.67;;;2.17;;
65971;SDS011;52726;48.852;9.152;2023-12-07T07:13:57;2.65;;;1.85;;
65971;SDS011;52726;48.852;9.152;2023-12-07T07:16:22;2.05;;;1.88;;
65971;SDS011;52726;48.852;9.152;2023-12-07T07:18:47;1.75;;;1.65;;
65971;SDS011;52726;48.852;9.152;2023-12-07T07:21:13;1.55;;;1.45;;
65971;SDS011;52726;48.852;9.152;2023-12-07T07:23:38;1.98;;;1.80;;
65971;SDS011;52726;48.852;9.152;2023-12-07T07:26:04;3.42;;;1.98;;
65971;SDS011;52726;48.852;9.152;2023-12-07T07:28:31;2.00;;;1.90;;
65971;SDS011;52726;48.852;9.152;2023-12-07T07:30:56;4.70;;;2.50;;
65971;SDS011;52726;48.852;9.152;2023-12-07T07:33:21;10.20;;;2.33;;
65971;SDS011;52726;48.852;9.152;2023-12-07T07:35:47;3.75;;;1.77;;
65971;SDS011;52726;48.852;9.152;2023-12-07T07:38:12;4.07;;;2.28;;
65971;SDS011;52726;48.852;9.152;2023-12-07T07:40:39;1.58;;;1.30;;
65971;SDS011;52726;48.852;9.152;2023-12-07T07:43:05;3.63;;;2.17;;
65971;SDS011;52726;48.852;9.152;2023-12-07T07:45:30;3.58;;;2.95;;
65971;SDS011;52726;48.852;9.152;2023-12-07T07:47:56;2.30;;;2.10;;
65971;SDS011;52726;48.852;9.152;2023-12-07T07:50:21;1.65;;;1.55;;
65971;SDS011;52726;48.852;9.152;2023-12-07T07:52:46;2.33;;;2.13;;
65971;SDS011;52726;48.852;9.152;2023-12-07T07:55:12;3.13;;;2.05;;
65971;SDS011;52726;48.852;9.152;2023-12-07T07:57:37;2.28;;;2.10;;
65971;SDS011;52726;48.852;9.152;2023-12-07T08:00:03;4.07;;;2.20;;
65971;SDS011;52726;48.852;9.152;2023-12-07T08:02:30;3.97;;;2.85;;
65971;SDS011;52726;48.852;9.152;2023-12-07T08:04:55;3.50;;;3.17;;
65971;SDS011;52726;48.852;9.152;2023-12-07T08:07:21;7.63;;;3.35;;
65971;SDS011;52726;48.852;9.152;2023-12-07T08:09:46;14.75;;;3.42;;
65971;SDS011;52726;48.852;9.152;2023-12-07T08:12:12;4.65;;;3.75;;
65971;SDS011;52726;48.852;9.152;2023-12-07T08:14:37;4.20;;;3.47;;
65971;SDS011;52726;48.852;9.152;2023-12-07T08:17:03;6.82;;;5.15;;
65971;SDS011;52726;48.852;9.152;2023-12-07T08:19:28;9.02;;;3.70;;
65971;SDS011;52726;48.852;9.152;2023-12-07T08:21:54;6.15;;;4.45;;
65971;SDS011;52726;48.852;9.152;2023-12-07T08:24:19;4.53;;;3.00;;
65971;SDS011;52726;48.852;9.152;2023-12-07T08:26:45;6.70;;;4.38;;
65971;SDS011;52726;48.852;9.152;2023-12-07T08:29:10;5.07;;;3.47;;
65971;SDS011;52726;48.852;9.152;2023-12-07T08:31:36;5.93;;;3.15;;
65971;SDS011;52726;48.852;9.152;2023-12-07T08:34:01;4.53;;;3.03;;
65971;SDS011;52726;48.852;9.152;2023-12-07T08:36:26;5.40;;;3.53;;
65971;SDS011;52726;48.852;9.152;2023-12-07T08:38:52;7.15;;;3.85;;
65971;SDS011;52726;48.852;9.152;2023-12-07T08:41:17;7.47;;;5.13;;
65971;SDS011;52726;48.852;9.152;2023-12-07T08:43:43;7.28;;;3.45;;
65971;SDS011;52726;48.852;9.152;2023-12-07T08:46:08;5.53;;;3.35;;
65971;SDS011;52726;48.852;9.152;2023-12-07T08:48:35;6.28;;;3.95;;
65971;SDS011;52726;48.852;9.152;2023-12-07T08:51:02;6.57;;;4.10;;
65971;SDS011;52726;48.852;9.152;2023-12-07T08:53:27;8.55;;;4.28;;
65971;SDS011;52726;48.852;9.152;2023-12-07T08:55:56;7.30;;;4.28;;
65971;SDS011;52726;48.852;9.152;2023-12-07T08:58:21;7.25;;;4.78;;
65971;SDS011;52726;48.852;9.152;2023-12-07T09:00:47;9.30;;;5.07;;
65971;SDS011;52726;48.852;9.152;2023-12-07T09:03:12;6.07;;;4.15;;
65971;SDS011;52726;48.852;9.152;2023-12-07T09:05:38;8.15;;;4.70;;
65971;SDS011;52726;48.852;9.152;2023-12-07T09:08:04;6.18;;;4.15;;
65971;SDS011;52726;48.852;9.152;2023-12-07T09:10:30;7.78;;;5.25;;
65971;SDS011;52726;48.852;9.152;2023-12-07T09:12:55;8.50;;;5.32;;
65971;SDS011;52726;48.852;9.152;2023-12-07T09:15:21;6.82;;;5.20;;
65971;SDS011;52726;48.852;9.152;2023-12-07T09:17:46;13.27;;;5.30;;
65971;SDS011;52726;48.852;9.152;2023-12-07T09:20:13;6.60;;;5.38;;
65971;SDS011;52726;48.852;9.152;2023-12-07T09:22:48;6.25;;;3.88;;
65971;SDS011;52726;48.852;9.152;2023-12-07T09:25:15;16.02;;;4.97;;
65971;SDS011;52726;48.852;9.152;2023-12-07T09:27:41;8.45;;;5.05;;
65971;SDS011;52726;48.852;9.152;2023-12-07T09:30:07;8.45;;;5.43;;
65971;SDS011;52726;48.852;9.152;2023-12-07T09:32:36;4.55;;;3.22;;
65971;SDS011;52726;48.852;9.152;2023-12-07T09:35:06;7.72;;;4.97;;
65971;SDS011;52726;48.852;9.152;2023-12-07T09:37:32;8.43;;;4.47;;
65971;SDS011;52726;48.852;9.152;2023-12-07T09:40:01;7.07;;;5.28;;
65971;SDS011;52726;48.852;9.152;2023-12-07T09:42:31;9.63;;;5.47;;
65971;SDS011;52726;48.852;9.152;2023-12-07T09:44:57;6.30;;;4.18;;
65971;SDS011;52726;48.852;9.152;2023-12-07T09:47:22;7.70;;;4.30;;
65971;SDS011;52726;48.852;9.152;2023-12-07T09:49:47;6.03;;;4.40;;
65971;SDS011;52726;48.852;9.152;2023-12-07T09:52:13;5.75;;;3.35;;
65971;SDS011;52726;48.852;9.152;2023-12-07T09:54:40;6.47;;;3.38;;
65971;SDS011;52726;48.852;9.152;2023-12-07T09:57:06;10.85;;;6.45;;
65971;SDS011;52726;48.852;9.152;2023-12-07T09:59:34;8.85;;;4.78;;
65971;SDS011;52726;48.852;9.152;2023-12-07T10:02:00;6.32;;;4.43;;
65971;SDS011;52726;48.852;9.152;2023-12-07T10:04:25;5.57;;;4.13;;
65971;SDS011;52726;48.852;9.152;2023-12-07T10:06:55;6.13;;;4.10;;
65971;SDS011;52726;48.852;9.152;2023-12-07T10:09:21;5.75;;;4.05;;
65971;SDS011;52726;48.852;9.152;2023-12-07T10:11:47;6.85;;;4.50;;
65971;SDS011;52726;48.852;9.152;2023-12-07T10:14:13;10.80;;;5.40;;
65971;SDS011;52726;48.852;9.152;2023-12-07T10:16:39;5.55;;;3.78;;
65971;SDS011;52726;48.852;9.152;2023-12-07T10:19:20;5.95;;;4.22;;
65971;SDS011;52726;48.852;9.152;2023-12-07T10:21:49;9.68;;;4.88;;
65971;SDS011;52726;48.852;9.152;2023-12-07T10:24:16;11.85;;;4.57;;
65971;SDS011;52726;48.852;9.152;2023-12-07T10:26:43;9.50;;;3.80;;
65971;SDS011;52726;48.852;9.152;2023-12-07T10:29:10;5.80;;;4.13;;
65971;SDS011;52726;48.852;9.152;2023-12-07T10:31:36;5.30;;;3.70;;
65971;SDS011;52726;48.852;9.152;2023-12-07T10:34:02;5.63;;;3.40;;
65971;SDS011;52726;48.852;9.152;2023-12-07T10:36:27;6.93;;;3.85;;
65971;SDS011;52726;48.852;9.152;2023-12-07T10:38:52;7.18;;;4.25;;
65971;SDS011;52726;48.852;9.152;2023-12-07T10:41:19;5.43;;;3.28;;
65971;SDS011;52726;48.852;9.152;2023-12-07T10:43:48;3.47;;;3.15;;
65971;SDS011;52726;48.852;9.152;2023-12-07T10:46:16;4.32;;;2.97;;
65971;SDS011;52726;48.852;9.152;2023-12-07T10:48:45;4.60;;;2.38;;
65971;SDS011;52726;48.852;9.152;2023-12-07T10:51:28;5.32;;;3.15;;
65971;SDS011;52726;48.852;9.152;2023-12-07T10:53:57;4.32;;;3.20;;
65971;SDS011;52726;48.852;9.152;2023-12-07T10:59:15;5.40;;;3.85;;
65971;SDS011;52726;48.852;9.152;2023-12-07T11:01:42;6.90;;;3.47;;
65971;SDS011;52726;48.852;9.152;2023-12-07T11:04:11;3.33;;;3.03;;
65971;SDS011;52726;48.852;9.152;2023-12-07T11:06:38;4.20;;;3.25;;
65971;SDS011;52726;48.852;9.152;2023-12-07T11:09:07;4.70;;;2.97;;
65971;SDS011;52726;48.852;9.152;2023-12-07T11:11:46;4.03;;;2.88;;
65971;SDS011;52726;48.852;9.152;2023-12-07T11:14:16;2.85;;;2.55;;
65971;SDS011;52726;48.852;9.152;2023-12-07T11:16:42;5.35;;;2.78;;
65971;SDS011;52726;48.852;9.152;2023-12-07T11:21:54;4.90;;;2.85;;
65971;SDS011;52726;48.852;9.152;2023-12-07T11:24:20;6.80;;;2.75;;
65971;SDS011;52726;48.852;9.152;2023-12-07T11:26:48;5.35;;;2.80;;
65971;SDS011;52726;48.852;9.152;2023-12-07T11:29:13;3.53;;;2.28;;
65971;SDS011;52726;48.852;9.152;2023-12-07T11:31:39;6.15;;;3.13;;
65971;SDS011;52726;48.852;9.152;2023-12-07T11:34:07;4.35;;;3.00;;
65971;SDS011;52726;48.852;9.152;2023-12-07T11:36:38;5.07;;;2.92;;
65971;SDS011;52726;48.852;9.152;2023-12-07T11:41:34;4.85;;;2.90;;
65971;SDS011;52726;48.852;9.152;2023-12-07T11:44:09;5.72;;;3.47;;
65971;SDS011;52726;48.852;9.152;2023-12-07T11:46:35;5.18;;;2.63;;
65971;SDS011;52726;48.852;9.152;2023-12-07T11:49:02;2.63;;;2.25;;
65971;SDS011;52726;48.852;9.152;2023-12-07T11:51:29;3.80;;;2.38;;
65971;SDS011;52726;48.852;9.152;2023-12-07T11:53:54;4.10;;;2.45;;
65971;SDS011;52726;48.852;9.152;2023-12-07T11:56:19;2.80;;;2.13;;
65971;SDS011;52726;48.852;9.152;2023-12-07T11:58:46;6.07;;;2.50;;
65971;SDS011;52726;48.852;9.152;2023-12-07T12:01:12;3.08;;;2.22;;
65971;SDS011;52726;48.852;9.152;2023-12-07T12:03:37;4.88;;;2.70;;
65971;SDS011;52726;48.852;9.152;2023-12-07T12:06:04;3.95;;;2.10;;
65971;SDS011;52726;48.852;9.152;2023-12-07T12:08:31;4.78;;;2.70;;
65971;SDS011;52726;48.852;9.152;2023-12-07T12:10:56;1.60;;;1.35;;
65971;SDS011;52726;48.852;9.152;2023-12-07T12:15:54;5.10;;;1.95;;
65971;SDS011;52726;48.852;9.152;2023-12-07T12:18:21;1.63;;;1.38;;
65971;SDS011;52726;48.852;9.152;2023-12-07T12:20:46;4.60;;;2.10;;
65971;SDS011;52726;48.852;9.152;2023-12-07T12:23:12;3.28;;;2.40;;
65971;SDS011;52726;48.852;9.152;2023-12-07T12:25:37;1.63;;;1.40;;
65971;SDS011;52726;48.852;9.152;2023-12-07T12:28:03;1.95;;;1.63;;
65971;SDS011;52726;48.852;9.152;2023-12-07T12:30:30;2.55;;;1.65;;
65971;SDS011;52726;48.852;9.152;2023-12-07T12:32:56;2.03;;;1.70;;
65971;SDS011;52726;48.852;9.152;2023-12-07T12:35:22;2.78;;;1.45;;
65971;SDS011;52726;48.852;9.152;2023-12-07T12:37:48;4.18;;;1.75;;
65971;SDS011;52726;48.852;9.152;2023-12-07T12:40:15;1.83;;;1.73;;
65971;SDS011;52726;48.852;9.152;2023-12-07T12:42:46;3.78;;;1.98;;
65971;SDS011;52726;48.852;9.152;2023-12-07T12:45:13;2.08;;;1.88;;
65971;SDS011;52726;48.852;9.152;2023-12-07T12:47:40;2.88;;;1.73;;
65971;SDS011;52726;48.852;9.152;2023-12-07T12:50:06;3.22;;;1.83;;
65971;SDS011;52726;48.852;9.152;2023-12-07T12:52:32;3.95;;;2.60;;
65971;SDS011;52726;48.852;9.152;2023-12-07T12:54:58;5.15;;;1.70;;
65971;SDS011;52726;48.852;9.152;2023-12-07T12:57:23;1.60;;;1.50;;
65971;SDS011;52726;48.852;9.152;2023-12-07T12:59:52;4.80;;;2.33;;
65971;SDS011;52726;48.852;9.152;2023-12-07T13:02:18;3.15;;;2.47;;
65971;SDS011;52726;48.852;9.152;2023-12-07T13:04:44;4.10;;;2.53;;
65971;SDS011;52726;48.852;9.152;2023-12-07T13:07:12;7.03;;;2.22;;
65971;SDS011;52726;48.852;9.152;2023-12-07T13:09:38;8.38;;;2.00;;
65971;SDS011;52726;48.852;9.152;2023-12-07T13:12:04;3.08;;;2.20;;
65971;SDS011;52726;48.852;9.152;2023-12-07T13:14:30;6.05;;;2.42;;
65971;SDS011;52726;48.852;9.152;2023-12-07T13:16:55;2.90;;;1.90;;
65971;SDS011;52726;48.852;9.152;2023-12-07T13:19:20;6.10;;;2.22;;
65971;SDS011;52726;48.852;9.152;2023-12-07T13:21:46;2.30;;;2.10;;
65971;SDS011;52726;48.852;9.152;2023-12-07T13:24:12;5.18;;;2.35;;
65971;SDS011;52726;48.852;9.152;2023-12-07T13:26:38;2.35;;;1.50;;
65971;SDS011;52726;48.852;9.152;2023-12-07T13:29:06;1.63;;;1.52;;
65971;SDS011;52726;48.852;9.152;2023-12-07T13:31:32;2.55;;;1.85;;
65971;SDS011;52726;48.852;9.152;2023-12-07T13:33:58;2.65;;;2.00;;
65971;SDS011;52726;48.852;9.152;2023-12-07T13:36:23;3.60;;;1.98;;
65971;SDS011;52726;48.852;9.152;2023-12-07T13:38:51;2.85;;;2.03;;
65971;SDS011;52726;48.852;9.152;2023-12-07T13:41:16;2.42;;;1.75;;
65971;SDS011;52726;48.852;9.152;2023-12-07T13:43:42;5.07;;;2.17;;
65971;SDS011;52726;48.852;9.152;2023-12-07T13:46:07;6.25;;;2.22;;
65971;SDS011;52726;48.852;9.152;2023-12-07T13:48:33;8.80;;;1.85;;
65971;SDS011;52726;48.852;9.152;2023-12-07T13:50:58;4.03;;;2.25;;
65971;SDS011;52726;48.852;9.152;2023-12-07T13:53:24;2.08;;;1.85;;
65971;SDS011;52726;48.852;9.152;2023-12-07T13:55:49;4.43;;;1.95;;
65971;SDS011;52726;48.852;9.152;2023-12-07T13:58:16;2.47;;;2.10;;
65971;SDS011;52726;48.852;9.152;2023-12-07T14:00:42;2.30;;;1.90;;
65971;SDS011;52726;48.852;9.152;2023-12-07T14:03:10;8.07;;;2.38;;
65971;SDS011;52726;48.852;9.152;2023-12-07T14:05:36;2.95;;;1.88;;
65971;SDS011;52726;48.852;9.152;2023-12-07T14:08:02;2.55;;;1.65;;
65971;SDS011;52726;48.852;9.152;2023-12-07T14:10:28;2.92;;;2.03;;
65971;SDS011;52726;48.852;9.152;2023-12-07T14:12:53;4.32;;;2.00;;
65971;SDS011;52726;48.852;9.152;2023-12-07T14:15:18;3.03;;;1.98;;
65971;SDS011;52726;48.852;9.152;2023-12-07T14:17:43;2.78;;;1.90;;
65971;SDS011;52726;48.852;9.152;2023-12-07T14:20:12;6.15;;;2.35;;
65971;SDS011;52726;48.852;9.152;2023-12-07T14:22:42;3.25;;;2.00;;
65971;SDS011;52726;48.852;9.152;2023-12-07T14:25:08;3.13;;;2.10;;
65971;SDS011;52726;48.852;9.152;2023-12-07T14:27:42;2.25;;;1.55;;
65971;SDS011;52726;48.852;9.152;2023-12-07T14:30:08;5.57;;;1.98;;
65971;SDS011;52726;48.852;9.152;2023-12-07T14:32:35;3.20;;;1.67;;
65971;SDS011;52726;48.852;9.152;2023-12-07T14:35:00;2.03;;;1.73;;
65971;SDS011;52726;48.852;9.152;2023-12-07T14:37:26;1.27;;;1.17;;
65971;SDS011;52726;48.852;9.152;2023-12-07T14:39:51;1.50;;;0.95;;
65971;SDS011;52726;48.852;9.152;2023-12-07T14:42:16;1.48;;;1.33;;
65971;SDS011;52726;48.852;9.152;2023-12-07T14:44:42;2.90;;;0.88;;
65971;SDS011;52726;48.852;9.152;2023-12-07T14:47:07;1.42;;;0.98;;
65971;SDS011;52726;48.852;9.152;2023-12-07T14:49:32;1.58;;;1.00;;
65971;SDS011;52726;48.852;9.152;2023-12-07T14:51:58;5.07;;;1.10;;
65971;SDS011;52726;48.852;9.152;2023-12-07T14:54:24;1.30;;;1.20;;
65971;SDS011;52726;48.852;9.152;2023-12-07T14:56:50;1.33;;;0.88;;
65971;SDS011;52726;48.852;9.152;2023-12-07T14:59:15;1.67;;;0.93;;
65971;SDS011;52726;48.852;9.152;2023-12-07T15:01:41;4.18;;;1.13;;
65971;SDS011;52726;48.852;9.152;2023-12-07T15:04:07;3.50;;;1.40;;
65971;SDS011;52726;48.852;9.152;2023-12-07T15:06:34;1.90;;;0.95;;